Time,TemperatureF,DewpointF,PressureIn,WindDirection,WindDirectionDegrees,WindSpeedMPH,WindSpeedGustMPH,Humidity,HourlyPrecipIn,Conditions,Clouds,dailyrainin,SoftwareType,DateUTC
2013-04-28 00:05:00,52.3,46.7,29.93,ESE,115,0.0,2.0,81,0.00,,---,0.00,VWS V14.01,2013-04-28 05:05:00,
2013-04-28 00:11:00,52.2,46.5,29.93,ESE,115,0.0,2.0,81,0.00,,---,0.00,VWS V14.01,2013-04-28 05:11:00,
2013-04-28 00:17:00,51.9,46.6,29.93,ESE,114,0.0,2.0,82,0.00,,---,0.00,VWS V14.01,2013-04-28 05:17:00,
2013-04-28 00:23:00,51.9,46.9,29.93,SSW,209,0.0,3.0,83,0.00,,---,0.00,VWS V14.01,2013-04-28 05:23:00,
2013-04-28 00:29:00,52.3,47.3,29.92,SE,126,1.0,4.0,83,0.00,,---,0.00,VWS V14.01,2013-04-28 05:29:00,
2013-04-28 00:35:00,52.6,47.3,29.93,SE,146,1.0,4.0,82,0.00,,---,0.00,VWS V14.01,2013-04-28 05:35:00,
2013-04-28 00:41:00,52.7,47.4,29.93,SSE,157,0.0,4.0,82,0.00,,---,0.00,VWS V14.01,2013-04-28 05:41:00,
2013-04-28 00:47:00,52.7,47.0,29.92,SSE,149,1.0,4.0,81,0.00,,---,0.00,VWS V14.01,2013-04-28 05:47:00,
2013-04-28 00:53:00,52.5,47.2,29.92,SSE,156,1.0,4.0,82,0.00,,---,0.00,VWS V14.01,2013-04-28 05:53:00,
2013-04-28 00:59:00,52.4,47.1,29.93,SE,134,0.0,4.0,82,0.00,,---,0.00,VWS V14.01,2013-04-28 05:59:00,
2013-04-28 01:05:00,52.4,47.1,29.93,SE,136,1.0,3.0,82,0.00,,---,0.00,VWS V14.01,2013-04-28 06:05:00,
2013-04-28 01:11:00,52.4,47.1,29.93,SE,126,0.0,4.0,82,0.00,,---,0.00,VWS V14.01,2013-04-28 06:11:00,
2013-04-28 01:17:00,52.3,47.0,29.93,ESE,106,0.0,5.0,82,0.00,,---,0.00,VWS V14.01,2013-04-28 06:17:00,
2013-04-28 01:23:00,52.2,47.2,29.93,ESE,108,0.0,5.0,83,0.00,,---,0.00,VWS V14.01,2013-04-28 06:23:00,
2013-04-28 01:29:00,52.0,47.0,29.93,SSW,197,1.0,5.0,83,0.00,,---,0.00,VWS V14.01,2013-04-28 06:29:00,
2013-04-28 01:36:00,51.9,46.9,29.93,SSE,168,1.0,4.0,83,0.00,,---,0.00,VWS V14.01,2013-04-28 06:36:00,
2013-04-28 01:42:00,51.8,46.8,29.93,South,178,2.0,5.0,83,0.00,,---,0.00,VWS V14.01,2013-04-28 06:42:00,
2013-04-28 01:48:00,51.7,46.7,29.93,South,183,2.0,5.0,83,0.00,,---,0.00,VWS V14.01,2013-04-28 06:48:00,
2013-04-28 01:54:00,51.5,46.5,29.93,South,183,0.0,5.0,83,0.00,,---,0.00,VWS V14.01,2013-04-28 06:54:00,
2013-04-28 02:00:00,51.4,46.7,29.92,South,183,0.0,5.0,84,0.00,,---,0.00,VWS V14.01,2013-04-28 07:00:00,
2013-04-28 02:06:00,51.2,46.5,29.92,South,183,0.0,2.0,84,0.00,,---,0.00,VWS V14.01,2013-04-28 07:06:00,
2013-04-28 02:12:00,51.0,46.3,29.92,South,183,0.0,2.0,84,0.00,,---,0.00,VWS V14.01,2013-04-28 07:12:00,
2013-04-28 02:18:00,50.8,46.2,29.92,South,183,0.0,2.0,84,0.00,,---,0.00,VWS V14.01,2013-04-28 07:18:00,
2013-04-28 02:24:00,50.6,46.3,29.91,South,183,0.0,2.0,85,0.00,,---,0.00,VWS V14.01,2013-04-28 07:24:00,
2013-04-28 02:30:00,50.5,46.2,29.91,South,184,0.0,2.0,85,0.00,,---,0.00,VWS V14.01,2013-04-28 07:30:00,
2013-04-28 02:36:00,50.3,46.0,29.91,South,183,0.0,0.0,85,0.00,,---,0.00,VWS V14.01,2013-04-28 07:36:00,
2013-04-28 02:42:00,50.0,45.7,29.91,South,184,1.0,2.0,85,0.00,,---,0.00,VWS V14.01,2013-04-28 07:42:00,
2013-04-28 02:48:00,49.9,45.9,29.91,South,183,0.0,2.0,86,0.00,,---,0.00,VWS V14.01,2013-04-28 07:48:00,
2013-04-28 02:54:00,49.7,45.7,29.90,South,183,1.0,3.0,86,0.00,,---,0.00,VWS V14.01,2013-04-28 07:54:00,
2013-04-28 03:00:00,49.6,45.6,29.90,South,183,1.0,3.0,86,0.00,,---,0.00,VWS V14.01,2013-04-28 08:00:00,
2013-04-28 03:06:00,49.5,45.8,29.90,South,184,2.0,2.0,87,0.00,,---,0.00,VWS V14.01,2013-04-28 08:06:00,
2013-04-28 03:12:00,49.2,45.5,29.90,South,183,1.0,4.0,87,0.00,,---,0.00,VWS V14.01,2013-04-28 08:12:00,
2013-04-28 03:18:00,49.2,45.5,29.90,South,183,0.0,4.0,87,0.00,,---,0.00,VWS V14.01,2013-04-28 08:18:00,
2013-04-28 03:24:00,49.0,45.3,29.89,SE,126,0.0,4.0,87,0.00,,---,0.00,VWS V14.01,2013-04-28 08:24:00,
2013-04-28 03:30:00,48.7,45.0,29.89,SE,126,1.0,4.0,87,0.00,,---,0.00,VWS V14.01,2013-04-28 08:30:00,
2013-04-28 03:36:00,48.4,45.0,29.89,SE,125,0.0,1.0,88,0.00,,---,0.00,VWS V14.01,2013-04-28 08:36:00,
2013-04-28 03:42:00,48.2,44.8,29.89,SE,126,0.0,2.0,88,0.00,,---,0.00,VWS V14.01,2013-04-28 08:42:00,
2013-04-28 03:48:00,48.0,44.6,29.89,SE,126,2.0,3.0,88,0.00,,---,0.00,VWS V14.01,2013-04-28 08:48:00,
2013-04-28 03:54:00,47.9,44.5,29.89,SE,126,2.0,4.0,88,0.00,,---,0.00,VWS V14.01,2013-04-28 08:54:00,
2013-04-28 04:00:00,47.6,44.5,29.89,SE,126,0.0,4.0,89,0.00,,---,0.00,VWS V14.01,2013-04-28 09:00:00,
2013-04-28 04:06:00,47.4,44.3,29.89,SE,125,1.0,3.0,89,0.00,,---,0.00,VWS V14.01,2013-04-28 09:06:00,
2013-04-28 04:12:00,47.3,44.2,29.89,SE,125,1.0,3.0,89,0.00,,---,0.00,VWS V14.01,2013-04-28 09:12:00,
2013-04-28 04:18:00,47.1,44.0,29.90,SE,126,0.0,3.0,89,0.00,,---,0.00,VWS V14.01,2013-04-28 09:18:00,
2013-04-28 04:25:00,46.8,43.7,29.89,SE,125,0.0,3.0,89,0.00,,---,0.00,VWS V14.01,2013-04-28 09:25:00,
2013-04-28 04:30:00,46.6,43.5,29.89,SE,126,0.0,3.0,89,0.00,,---,0.00,VWS V14.01,2013-04-28 09:30:00,
2013-04-28 04:37:00,46.5,43.7,29.89,SE,126,0.0,3.0,90,0.00,,---,0.00,VWS V14.01,2013-04-28 09:37:00,
2013-04-28 04:43:00,46.4,43.6,29.89,SE,126,0.0,3.0,90,0.00,,---,0.00,VWS V14.01,2013-04-28 09:43:00,
2013-04-28 04:49:00,46.4,43.6,29.89,SE,126,2.0,3.0,90,0.00,,---,0.00,VWS V14.01,2013-04-28 09:49:00,
2013-04-28 04:55:00,46.4,43.9,29.89,SE,140,0.0,3.0,91,0.00,,---,0.00,VWS V14.01,2013-04-28 09:55:00,
2013-04-28 05:00:00,46.4,43.9,29.89,SE,139,0.0,3.0,91,0.00,,---,0.00,VWS V14.01,2013-04-28 10:00:00,
2013-04-28 05:07:00,46.3,43.8,29.89,SE,140,1.0,3.0,91,0.00,,---,0.00,VWS V14.01,2013-04-28 10:07:00,
2013-04-28 05:13:00,46.4,43.9,29.89,SE,140,0.0,3.0,91,0.00,,---,0.00,VWS V14.01,2013-04-28 10:13:00,
2013-04-28 05:19:00,46.3,43.8,29.89,SE,140,0.0,3.0,91,0.00,,---,0.00,VWS V14.01,2013-04-28 10:19:00,
2013-04-28 05:25:00,46.2,43.7,29.88,SE,140,2.0,3.0,91,0.00,,---,0.00,VWS V14.01,2013-04-28 10:25:00,
2013-04-28 05:30:00,46.0,43.5,29.88,SE,140,1.0,3.0,91,0.00,,---,0.00,VWS V14.01,2013-04-28 10:30:00,
2013-04-28 05:37:00,46.0,43.5,29.89,SE,146,0.0,3.0,91,0.00,,---,0.00,VWS V14.01,2013-04-28 10:37:00,
2013-04-28 05:43:00,46.1,43.9,29.88,South,178,0.0,4.0,92,0.00,,---,0.00,VWS V14.01,2013-04-28 10:43:00,
2013-04-28 05:49:00,45.9,43.7,29.88,South,178,0.0,4.0,92,0.00,,---,0.00,VWS V14.01,2013-04-28 10:49:00,
2013-04-28 05:55:00,45.9,43.7,29.88,SE,133,0.0,4.0,92,0.00,,---,0.00,VWS V14.01,2013-04-28 10:55:00,
2013-04-28 06:01:00,45.8,43.6,29.88,SE,134,0.0,4.0,92,0.00,,---,0.00,VWS V14.01,2013-04-28 11:01:00,
2013-04-28 06:07:00,45.7,43.5,29.88,SE,134,0.0,0.0,92,0.00,,---,0.00,VWS V14.01,2013-04-28 11:07:00,
2013-04-28 06:13:00,45.5,43.3,29.88,SE,134,0.0,0.0,92,0.00,,---,0.00,VWS V14.01,2013-04-28 11:13:00,
2013-04-28 06:19:00,45.2,43.0,29.88,SE,134,0.0,0.0,92,0.00,,---,0.00,VWS V14.01,2013-04-28 11:19:00,
2013-04-28 06:25:00,45.1,42.9,29.88,SE,134,0.0,0.0,92,0.00,,---,0.00,VWS V14.01,2013-04-28 11:25:00,
2013-04-28 06:31:00,45.1,42.9,29.87,SE,134,1.0,3.0,92,0.00,,---,0.00,VWS V14.01,2013-04-28 11:31:00,
2013-04-28 06:37:00,45.3,43.1,29.88,SE,134,0.0,3.0,92,0.00,,---,0.00,VWS V14.01,2013-04-28 11:37:00,
2013-04-28 06:43:00,45.4,43.2,29.88,SE,134,0.0,3.0,92,0.00,,---,0.00,VWS V14.01,2013-04-28 11:43:00,
2013-04-28 06:49:00,45.5,43.6,29.88,SE,134,0.0,3.0,93,0.00,,---,0.00,VWS V14.01,2013-04-28 11:49:00,
2013-04-28 06:55:00,45.9,44.0,29.88,SE,134,0.0,3.0,93,0.00,,---,0.00,VWS V14.01,2013-04-28 11:55:00,
2013-04-28 07:00:00,46.1,44.2,29.88,SE,134,0.0,3.0,93,0.00,,---,0.00,VWS V14.01,2013-04-28 12:00:00,
2013-04-28 07:07:00,46.4,44.5,29.88,SE,142,0.0,2.0,93,0.00,,---,0.00,VWS V14.01,2013-04-28 12:07:00,
2013-04-28 07:13:00,46.8,44.9,29.88,SE,144,0.0,3.0,93,0.00,,---,0.00,VWS V14.01,2013-04-28 12:13:00,
2013-04-28 07:19:00,47.2,45.3,29.88,SE,144,0.0,3.0,93,0.00,,---,0.00,VWS V14.01,2013-04-28 12:19:00,
2013-04-28 07:26:00,47.6,45.7,29.88,SE,144,0.0,3.0,93,0.00,,---,0.00,VWS V14.01,2013-04-28 12:26:00,
2013-04-28 07:32:00,48.0,46.1,29.88,SSE,154,0.0,0.0,93,0.00,,---,0.00,VWS V14.01,2013-04-28 12:32:00,
2013-04-28 07:38:00,48.4,46.5,29.88,ESE,121,1.0,3.0,93,0.00,,---,0.00,VWS V14.01,2013-04-28 12:38:00,
2013-04-28 07:44:00,48.9,47.2,29.88,SSW,195,1.0,3.0,94,0.00,,---,0.00,VWS V14.01,2013-04-28 12:44:00,
2013-04-28 07:50:00,49.4,47.5,29.88,SSW,213,0.0,3.0,93,0.00,,---,0.00,VWS V14.01,2013-04-28 12:50:00,
2013-04-28 07:56:00,49.7,47.8,29.88,South,183,0.0,3.0,93,0.00,,---,0.00,VWS V14.01,2013-04-28 12:56:00,
2013-04-28 08:02:00,50.0,48.1,29.88,South,179,0.0,0.0,93,0.00,,---,0.00,VWS V14.01,2013-04-28 13:02:00,
2013-04-28 08:08:00,50.3,48.4,29.87,SSE,167,1.0,3.0,93,0.00,,---,0.00,VWS V14.01,2013-04-28 13:08:00,
2013-04-28 08:14:00,50.6,48.7,29.87,SSW,194,3.0,3.0,93,0.00,,---,0.00,VWS V14.01,2013-04-28 13:14:00,
2013-04-28 08:20:00,50.8,48.6,29.87,ESE,111,3.0,4.0,92,0.00,,---,0.00,VWS V14.01,2013-04-28 13:20:00,
2013-04-28 08:26:00,51.3,49.1,29.86,SE,132,0.0,4.0,92,0.00,,---,0.00,VWS V14.01,2013-04-28 13:26:00,
2013-04-28 08:32:00,51.8,49.5,29.86,SE,129,2.0,3.0,92,0.00,,---,0.00,VWS V14.01,2013-04-28 13:32:00,
2013-04-28 08:38:00,52.4,50.2,29.86,SE,129,0.0,5.0,92,0.00,,---,0.00,VWS V14.01,2013-04-28 13:38:00,
2013-04-28 08:44:00,53.2,50.7,29.86,SE,129,2.0,5.0,91,0.00,,---,0.00,VWS V14.01,2013-04-28 13:44:00,
2013-04-28 08:50:00,54.0,51.4,29.85,SSW,205,4.0,5.0,91,0.00,,---,0.00,VWS V14.01,2013-04-28 13:50:00,
2013-04-28 08:56:00,54.8,51.9,29.85,East,84,1.0,5.0,90,0.00,,---,0.00,VWS V14.01,2013-04-28 13:56:00,
2013-04-28 09:02:00,55.6,52.4,29.86,SSE,157,0.0,4.0,89,0.00,,---,0.00,VWS V14.01,2013-04-28 14:02:00,
2013-04-28 09:08:00,56.2,52.4,29.85,SSE,151,1.0,4.0,87,0.00,,---,0.00,VWS V14.01,2013-04-28 14:08:00,
2013-04-28 09:14:00,56.9,52.8,29.85,SE,130,0.0,6.0,86,0.00,,---,0.00,VWS V14.01,2013-04-28 14:14:00,
2013-04-28 09:20:00,57.5,52.7,29.85,South,175,0.0,6.0,84,0.00,,---,0.00,VWS V14.01,2013-04-28 14:20:00,
2013-04-28 09:26:00,58.5,53.7,29.84,SW,215,0.0,6.0,84,0.00,,---,0.00,VWS V14.01,2013-04-28 14:26:00,
2013-04-28 09:32:00,59.0,53.2,29.84,ESE,117,0.0,4.0,81,0.00,,---,0.00,VWS V14.01,2013-04-28 14:32:00,
2013-04-28 09:38:00,59.7,53.9,29.84,SE,136,2.0,4.0,81,0.00,,---,0.00,VWS V14.01,2013-04-28 14:38:00,
2013-04-28 09:44:00,59.9,53.4,29.84,SSW,204,3.0,5.0,79,0.00,,---,0.00,VWS V14.01,2013-04-28 14:44:00,
2013-04-28 09:50:00,60.5,54.0,29.83,South,180,0.0,5.0,79,0.00,,---,0.00,VWS V14.01,2013-04-28 14:50:00,
2013-04-28 09:56:00,60.8,53.5,29.83,South,173,1.0,5.0,77,0.00,,---,0.00,VWS V14.01,2013-04-28 14:56:00,
2013-04-28 10:02:00,61.1,53.5,29.83,South,171,5.0,5.0,76,0.00,,---,0.00,VWS V14.01,2013-04-28 15:02:00,
2013-04-28 10:08:00,61.4,54.1,29.83,SE,135,5.0,6.0,77,0.00,,---,0.00,VWS V14.01,2013-04-28 15:08:00,
2013-04-28 10:14:00,61.9,54.3,29.83,SW,221,2.0,6.0,76,0.00,,---,0.00,VWS V14.01,2013-04-28 15:14:00,
2013-04-28 10:20:00,62.5,54.1,29.82,South,181,4.0,6.0,74,0.00,,---,0.00,VWS V14.01,2013-04-28 15:20:00,
2013-04-28 10:27:00,62.7,54.3,29.82,SE,131,4.0,7.0,74,0.00,,---,0.00,VWS V14.01,2013-04-28 15:27:00,
2013-04-28 10:36:00,63.2,54.0,29.82,SE,130,1.0,3.0,72,0.00,,---,0.00,VWS V14.01,2013-04-28 15:36:00,
2013-04-28 10:43:00,64.3,55.5,29.82,SSE,165,0.0,4.0,73,0.00,,---,0.00,VWS V14.01,2013-04-28 15:43:00,
2013-04-28 10:49:00,65.1,55.9,29.82,South,173,3.0,5.0,72,0.00,,---,0.00,VWS V14.01,2013-04-28 15:49:00,
2013-04-28 10:55:00,66.1,55.7,29.82,South,188,1.0,6.0,69,0.00,,---,0.00,VWS V14.01,2013-04-28 15:55:00,
2013-04-28 11:01:00,66.8,55.5,29.81,South,173,3.0,6.0,67,0.00,,---,0.00,VWS V14.01,2013-04-28 16:01:00,
2013-04-28 11:07:00,67.0,55.7,29.81,South,172,2.0,7.0,67,0.00,,---,0.00,VWS V14.01,2013-04-28 16:07:00,
2013-04-28 11:13:00,67.2,54.6,29.81,South,182,4.0,7.0,64,0.00,,---,0.00,VWS V14.01,2013-04-28 16:13:00,
2013-04-28 11:19:00,67.5,54.0,29.80,SSE,148,4.0,7.0,62,0.00,,---,0.00,VWS V14.01,2013-04-28 16:19:00,
2013-04-28 11:25:00,67.9,54.8,29.80,South,175,3.0,9.0,63,0.00,,---,0.00,VWS V14.01,2013-04-28 16:25:00,
2013-04-28 11:31:00,68.5,54.5,29.80,SSE,152,2.0,9.0,61,0.00,,---,0.00,VWS V14.01,2013-04-28 16:31:00,
2013-04-28 11:37:00,69.1,55.5,29.80,SSW,211,2.0,7.0,62,0.00,,---,0.00,VWS V14.01,2013-04-28 16:37:00,
2013-04-28 11:43:00,69.3,54.4,29.80,South,175,3.0,7.0,59,0.00,,---,0.00,VWS V14.01,2013-04-28 16:43:00,
2013-04-28 11:49:00,69.5,53.6,29.80,SW,214,4.0,7.0,57,0.00,,---,0.00,VWS V14.01,2013-04-28 16:49:00,
2013-04-28 11:55:00,70.2,53.8,29.80,SW,225,1.0,7.0,56,0.00,,---,0.00,VWS V14.01,2013-04-28 16:55:00,
2013-04-28 12:01:00,70.4,52.5,29.80,SSE,150,4.0,7.0,53,0.00,,---,0.00,VWS V14.01,2013-04-28 17:01:00,
2013-04-28 12:07:00,70.8,50.2,29.79,SW,215,10.0,10.0,48,0.00,,---,0.00,VWS V14.01,2013-04-28 17:07:00,
2013-04-28 12:13:00,70.9,51.3,29.79,South,184,5.0,11.0,50,0.00,,---,0.00,VWS V14.01,2013-04-28 17:13:00,
2013-04-28 12:19:00,71.3,51.2,29.79,SSW,209,8.0,11.0,49,0.00,,---,0.00,VWS V14.01,2013-04-28 17:19:00,
2013-04-28 12:25:00,72.0,51.8,29.79,SSW,196,5.0,11.0,49,0.00,,---,0.00,VWS V14.01,2013-04-28 17:25:00,
2013-04-28 12:30:00,72.3,51.5,29.79,South,189,1.0,11.0,48,0.00,,---,0.00,VWS V14.01,2013-04-28 17:30:00,
2013-04-28 12:37:00,72.1,51.3,29.78,South,169,2.0,7.0,48,0.00,,---,0.00,VWS V14.01,2013-04-28 17:37:00,
2013-04-28 12:43:00,72.4,52.2,29.78,SSW,196,2.0,7.0,49,0.00,,---,0.00,VWS V14.01,2013-04-28 17:43:00,
2013-04-28 12:49:00,73.0,52.7,29.77,South,178,2.0,7.0,49,0.00,,---,0.00,VWS V14.01,2013-04-28 17:49:00,
2013-04-28 12:55:00,72.9,52.1,29.77,South,171,3.0,7.0,48,0.00,,---,0.00,VWS V14.01,2013-04-28 17:55:00,
2013-04-28 13:01:00,72.7,52.5,29.76,SSE,159,4.0,7.0,49,0.00,,---,0.00,VWS V14.01,2013-04-28 18:01:00,
2013-04-28 13:07:00,73.1,51.7,29.76,SSW,203,8.0,12.0,47,0.00,,---,0.00,VWS V14.01,2013-04-28 18:07:00,
2013-04-28 13:13:00,73.9,51.8,29.76,SSW,205,3.0,12.0,46,0.00,,---,0.00,VWS V14.01,2013-04-28 18:13:00,
2013-04-28 13:19:00,74.3,53.4,29.76,SSW,206,6.0,12.0,48,0.00,,---,0.00,VWS V14.01,2013-04-28 18:19:00,
2013-04-28 13:25:00,74.9,53.3,29.75,SSW,199,0.0,12.0,47,0.00,,---,0.00,VWS V14.01,2013-04-28 18:25:00,
2013-04-28 13:31:00,75.4,52.0,29.75,SW,214,7.0,12.0,44,0.00,,---,0.00,VWS V14.01,2013-04-28 18:31:00,
2013-04-28 13:37:00,75.3,51.3,29.74,SW,219,9.0,12.0,43,0.00,,---,0.00,VWS V14.01,2013-04-28 18:37:00,
2013-04-28 13:44:00,75.0,52.2,29.74,SSW,213,4.0,12.0,45,0.00,,---,0.00,VWS V14.01,2013-04-28 18:44:00,
2013-04-28 13:50:00,75.8,53.0,29.75,SSW,202,3.0,12.0,45,0.00,,---,0.00,VWS V14.01,2013-04-28 18:50:00,
2013-04-28 13:56:00,76.3,54.6,29.74,SSW,192,1.0,12.0,47,0.00,,---,0.00,VWS V14.01,2013-04-28 18:56:00,
2013-04-28 14:02:00,76.7,53.2,29.74,SSE,159,4.0,5.0,44,0.00,,---,0.00,VWS V14.01,2013-04-28 19:02:00,
2013-04-28 14:08:00,77.8,53.5,29.74,South,185,0.0,6.0,43,0.00,,---,0.00,VWS V14.01,2013-04-28 19:08:00,
2013-04-28 14:14:00,78.2,54.5,29.73,South,172,7.0,9.0,44,0.00,,---,0.00,VWS V14.01,2013-04-28 19:14:00,
2013-04-28 14:20:00,78.0,53.7,29.73,South,175,1.0,9.0,43,0.00,,---,0.00,VWS V14.01,2013-04-28 19:20:00,
2013-04-28 14:26:00,78.7,53.0,29.73,SSW,206,4.0,11.0,41,0.00,,---,0.00,VWS V14.01,2013-04-28 19:26:00,
2013-04-28 14:32:00,78.9,53.2,29.73,SSW,202,2.0,6.0,41,0.00,,---,0.00,VWS V14.01,2013-04-28 19:32:00,
2013-04-28 14:38:00,79.0,52.0,29.72,SSE,148,4.0,7.0,39,0.00,,---,0.00,VWS V14.01,2013-04-28 19:38:00,
2013-04-28 14:44:00,78.7,53.0,29.72,SSE,157,1.0,7.0,41,0.00,,---,0.00,VWS V14.01,2013-04-28 19:44:00,
2013-04-28 14:50:00,79.4,53.7,29.72,South,186,4.0,9.0,41,0.00,,---,0.00,VWS V14.01,2013-04-28 19:50:00,
2013-04-28 14:56:00,79.8,52.7,29.72,South,191,6.0,9.0,39,0.00,,---,0.00,VWS V14.01,2013-04-28 19:56:00,
2013-04-28 15:02:00,80.0,52.8,29.72,SSW,208,7.0,9.0,39,0.00,,---,0.00,VWS V14.01,2013-04-28 20:02:00,
2013-04-28 15:08:00,79.7,53.3,29.71,South,187,1.0,10.0,40,0.00,,---,0.00,VWS V14.01,2013-04-28 20:08:00,
2013-04-28 15:14:00,79.3,53.6,29.71,SSW,192,3.0,10.0,41,0.00,,---,0.00,VWS V14.01,2013-04-28 20:14:00,
2013-04-28 15:20:00,79.4,54.3,29.70,SW,218,0.0,10.0,42,0.00,,---,0.00,VWS V14.01,2013-04-28 20:20:00,
2013-04-28 15:26:00,79.2,53.5,29.70,SSE,154,2.0,10.0,41,0.00,,---,0.00,VWS V14.01,2013-04-28 20:26:00,
2013-04-28 15:32:00,79.6,55.2,29.70,SSW,212,7.0,9.0,43,0.00,,---,0.00,VWS V14.01,2013-04-28 20:32:00,
2013-04-28 15:38:00,80.6,53.4,29.70,SSW,195,0.0,9.0,39,0.00,,---,0.00,VWS V14.01,2013-04-28 20:38:00,
2013-04-28 15:44:00,81.1,53.1,29.70,SSW,207,2.0,9.0,38,0.00,,---,0.00,VWS V14.01,2013-04-28 20:44:00,
2013-04-28 15:50:00,80.5,52.6,29.69,SSW,209,7.0,10.0,38,0.00,,---,0.00,VWS V14.01,2013-04-28 20:50:00,
2013-04-28 15:56:00,80.2,53.0,29.69,SSW,211,2.0,10.0,39,0.00,,---,0.00,VWS V14.01,2013-04-28 20:56:00,
2013-04-28 16:02:00,80.5,53.3,29.69,SSW,207,5.0,7.0,39,0.00,,---,0.00,VWS V14.01,2013-04-28 21:02:00,
2013-04-28 16:08:00,80.9,53.7,29.68,SSE,159,0.0,7.0,39,0.00,,---,0.00,VWS V14.01,2013-04-28 21:08:00,
2013-04-28 16:14:00,80.4,53.2,29.68,SSE,160,0.0,7.0,39,0.00,,---,0.00,VWS V14.01,2013-04-28 21:14:00,
2013-04-28 16:20:00,80.1,52.9,29.68,SW,219,3.0,7.0,39,0.00,,---,0.00,VWS V14.01,2013-04-28 21:20:00,
2013-04-28 16:26:00,79.9,52.0,29.67,SSE,165,0.0,7.0,38,0.00,,---,0.00,VWS V14.01,2013-04-28 21:26:00,
2013-04-28 16:33:00,79.5,52.4,29.67,South,177,1.0,4.0,39,0.00,,---,0.00,VWS V14.01,2013-04-28 21:33:00,
2013-04-28 16:41:00,79.7,53.3,29.67,SSW,196,0.0,5.0,40,0.00,,---,0.00,VWS V14.01,2013-04-28 21:41:00,
2013-04-28 16:47:00,80.0,52.1,29.67,SSW,194,1.0,6.0,38,0.00,,---,0.00,VWS V14.01,2013-04-28 21:47:00,
2013-04-28 16:53:00,80.1,52.2,29.67,SSW,210,1.0,6.0,38,0.00,,---,0.00,VWS V14.01,2013-04-28 21:53:00,
2013-04-28 16:59:00,80.1,54.3,29.67,SE,136,1.0,6.0,41,0.00,,---,0.00,VWS V14.01,2013-04-28 21:59:00,
2013-04-28 17:05:00,80.0,54.2,29.67,SSW,202,0.0,7.0,41,0.00,,---,0.00,VWS V14.01,2013-04-28 22:05:00,
2013-04-28 17:11:00,80.3,54.5,29.66,SSW,211,7.0,7.0,41,0.00,,---,0.00,VWS V14.01,2013-04-28 22:11:00,
2013-04-28 17:17:00,81.4,53.4,29.66,SW,217,4.0,12.0,38,0.00,,---,0.00,VWS V14.01,2013-04-28 22:17:00,
2013-04-28 17:23:00,82.0,54.6,29.66,SSW,205,0.0,12.0,39,0.00,,---,0.00,VWS V14.01,2013-04-28 22:23:00,
2013-04-28 17:29:00,82.5,52.9,29.66,SSW,204,5.0,12.0,36,0.00,,---,0.00,VWS V14.01,2013-04-28 22:29:00,
2013-04-28 17:35:00,82.7,53.1,29.66,SSW,207,2.0,8.0,36,0.00,,---,0.00,VWS V14.01,2013-04-28 22:35:00,
2013-04-28 17:41:00,82.4,53.5,29.66,SE,126,0.0,8.0,37,0.00,,---,0.00,VWS V14.01,2013-04-28 22:41:00,
2013-04-28 17:47:00,82.0,53.2,29.66,SSW,200,1.0,8.0,37,0.00,,---,0.00,VWS V14.01,2013-04-28 22:47:00,
2013-04-28 17:53:00,81.0,53.0,29.66,SSW,205,0.0,8.0,38,0.00,,---,0.00,VWS V14.01,2013-04-28 22:53:00,
2013-04-28 17:59:00,80.1,53.6,29.65,South,173,1.0,8.0,40,0.00,,---,0.00,VWS V14.01,2013-04-28 22:59:00,
2013-04-28 18:05:00,79.8,52.0,29.65,South,179,0.0,4.0,38,0.00,,---,0.00,VWS V14.01,2013-04-28 23:05:00,
2013-04-28 18:11:00,79.6,53.2,29.65,South,175,0.0,4.0,40,0.00,,---,0.00,VWS V14.01,2013-04-28 23:11:00,
2013-04-28 18:17:00,79.3,52.2,29.65,South,186,1.0,4.0,39,0.00,,---,0.00,VWS V14.01,2013-04-28 23:17:00,
2013-04-28 18:23:00,79.1,52.0,29.65,SSW,209,0.0,8.0,39,0.00,,---,0.00,VWS V14.01,2013-04-28 23:23:00,
2013-04-28 18:29:00,79.2,52.8,29.65,SW,217,6.0,8.0,40,0.00,,---,0.00,VWS V14.01,2013-04-28 23:29:00,
2013-04-28 18:35:00,79.4,53.0,29.65,SW,232,1.0,6.0,40,0.00,,---,0.00,VWS V14.01,2013-04-28 23:35:00,
2013-04-28 18:41:00,79.2,53.5,29.65,SSW,205,0.0,6.0,41,0.00,,---,0.00,VWS V14.01,2013-04-28 23:41:00,
2013-04-28 18:47:00,78.8,53.1,29.65,SSW,203,1.0,6.0,41,0.00,,---,0.00,VWS V14.01,2013-04-28 23:47:00,
2013-04-28 18:53:00,78.7,53.0,29.65,SSW,205,0.0,7.0,41,0.00,,---,0.00,VWS V14.01,2013-04-28 23:53:00,
2013-04-28 18:59:00,78.4,53.4,29.65,SSE,154,0.0,7.0,42,0.00,,---,0.00,VWS V14.01,2013-04-28 23:59:00,
2013-04-28 19:05:00,78.0,53.1,29.65,SW,221,0.0,5.0,42,0.00,,---,0.00,VWS V14.01,2013-04-29 00:05:00,
2013-04-28 19:12:00,77.6,52.7,29.65,SSW,197,3.0,5.0,42,0.00,,---,0.00,VWS V14.01,2013-04-29 00:12:00,
2013-04-28 19:18:00,77.3,53.1,29.65,SSW,205,1.0,5.0,43,0.00,,---,0.00,VWS V14.01,2013-04-29 00:18:00,
2013-04-28 19:24:00,77.0,53.4,29.65,SSW,206,0.0,5.0,44,0.00,,---,0.00,VWS V14.01,2013-04-29 00:24:00,
2013-04-28 19:30:00,76.6,53.1,29.65,SSW,206,0.0,5.0,44,0.00,,---,0.00,VWS V14.01,2013-04-29 00:30:00,
2013-04-28 19:36:00,76.2,53.9,29.64,SE,136,0.0,1.0,46,0.00,,---,0.00,VWS V14.01,2013-04-29 00:36:00,
2013-04-28 19:42:00,75.8,54.2,29.65,South,178,0.0,2.0,47,0.00,,---,0.00,VWS V14.01,2013-04-29 00:42:00,
2013-04-28 19:48:00,75.3,54.3,29.65,South,179,0.0,2.0,48,0.00,,---,0.00,VWS V14.01,2013-04-29 00:48:00,
2013-04-28 19:54:00,74.7,54.3,29.64,South,175,0.0,2.0,49,0.00,,---,0.00,VWS V14.01,2013-04-29 00:54:00,
2013-04-28 20:00:00,74.3,53.9,29.65,South,175,0.0,2.0,49,0.00,,---,0.00,VWS V14.01,2013-04-29 01:00:00,
2013-04-28 20:06:00,74.0,54.2,29.65,South,175,0.0,1.0,50,0.00,,---,0.00,VWS V14.01,2013-04-29 01:06:00,
2013-04-28 20:12:00,73.7,53.9,29.65,South,175,0.0,1.0,50,0.00,,---,0.00,VWS V14.01,2013-04-29 01:12:00,
2013-04-28 20:18:00,73.2,54.0,29.65,South,175,0.0,1.0,51,0.00,,---,0.00,VWS V14.01,2013-04-29 01:18:00,
2013-04-28 20:24:00,72.7,53.5,29.65,South,175,0.0,1.0,51,0.00,,---,0.00,VWS V14.01,2013-04-29 01:24:00,
2013-04-28 20:30:00,72.4,53.8,29.65,South,175,0.0,1.0,52,0.00,,---,0.00,VWS V14.01,2013-04-29 01:30:00,
2013-04-28 20:36:00,72.1,54.0,29.65,SSE,149,0.0,3.0,53,0.00,,---,0.00,VWS V14.01,2013-04-29 01:36:00,
2013-04-28 20:42:00,71.7,53.7,29.65,SSE,147,0.0,3.0,53,0.00,,---,0.00,VWS V14.01,2013-04-29 01:42:00,
2013-04-28 20:48:00,71.3,53.8,29.66,ESE,102,0.0,3.0,54,0.00,,---,0.00,VWS V14.01,2013-04-29 01:48:00,
2013-04-28 20:54:00,71.0,54.0,29.66,SSE,158,0.0,3.0,55,0.00,,---,0.00,VWS V14.01,2013-04-29 01:54:00,
2013-04-28 21:00:00,71.2,54.2,29.66,South,175,0.0,3.0,55,0.00,,---,0.00,VWS V14.01,2013-04-29 02:00:00,
2013-04-28 21:06:00,70.9,54.0,29.66,SSE,167,0.0,1.0,55,0.00,,---,0.00,VWS V14.01,2013-04-29 02:06:00,
2013-04-28 21:12:00,70.6,53.7,29.66,South,169,0.0,1.0,55,0.00,,---,0.00,VWS V14.01,2013-04-29 02:12:00,
2013-04-28 21:18:00,70.5,54.1,29.66,South,183,0.0,1.0,56,0.00,,---,0.00,VWS V14.01,2013-04-29 02:18:00,
2013-04-28 21:24:00,70.4,54.0,29.67,ESE,123,0.0,1.0,56,0.00,,---,0.00,VWS V14.01,2013-04-29 02:24:00,
2013-04-28 21:30:00,70.0,53.6,29.67,SE,128,0.0,1.0,56,0.00,,---,0.00,VWS V14.01,2013-04-29 02:30:00,
2013-04-28 21:36:00,69.6,53.7,29.67,SSW,202,0.0,0.0,57,0.00,,---,0.00,VWS V14.01,2013-04-29 02:36:00,
2013-04-28 21:42:00,69.3,53.4,29.67,SSW,202,0.0,1.0,57,0.00,,---,0.00,VWS V14.01,2013-04-29 02:42:00,
2013-04-28 21:48:00,68.9,53.5,29.68,SSW,202,0.0,1.0,58,0.00,,---,0.00,VWS V14.01,2013-04-29 02:48:00,
2013-04-28 21:54:00,68.3,53.4,29.68,SSW,198,0.0,1.0,59,0.00,,---,0.00,VWS V14.01,2013-04-29 02:54:00,
2013-04-28 22:00:00,67.9,53.5,29.68,SSW,198,0.0,1.0,60,0.00,,---,0.00,VWS V14.01,2013-04-29 03:00:00,
2013-04-28 22:06:00,67.7,53.3,29.68,SSW,198,0.0,0.0,60,0.00,,---,0.00,VWS V14.01,2013-04-29 03:06:00,
2013-04-28 22:13:00,67.7,53.3,29.68,SSW,194,0.0,0.0,60,0.00,,---,0.00,VWS V14.01,2013-04-29 03:13:00,
2013-04-28 22:19:00,67.9,53.5,29.68,South,190,0.0,0.0,60,0.00,,---,0.00,VWS V14.01,2013-04-29 03:19:00,
2013-04-28 22:25:00,67.8,53.4,29.68,South,191,0.0,0.0,60,0.00,,---,0.00,VWS V14.01,2013-04-29 03:25:00,
2013-04-28 22:31:00,67.5,53.6,29.68,South,190,0.0,0.0,61,0.00,,---,0.00,VWS V14.01,2013-04-29 03:31:00,
2013-04-28 22:37:00,66.9,53.5,29.68,South,190,0.0,0.0,62,0.00,,---,0.00,VWS V14.01,2013-04-29 03:37:00,
2013-04-28 22:43:00,66.3,53.3,29.69,South,190,0.0,0.0,63,0.00,,---,0.00,VWS V14.01,2013-04-29 03:43:00,
2013-04-28 22:49:00,65.9,53.0,29.69,South,191,0.0,0.0,63,0.00,,---,0.00,VWS V14.01,2013-04-29 03:49:00,
2013-04-28 22:55:00,65.5,53.0,29.69,South,191,0.0,0.0,64,0.00,,---,0.00,VWS V14.01,2013-04-29 03:55:00,
2013-04-28 23:00:00,65.4,53.3,29.69,South,190,0.0,0.0,65,0.00,,---,0.00,VWS V14.01,2013-04-29 04:00:00,
2013-04-28 23:01:00,65.4,53.3,29.69,South,190,0.0,0.0,65,0.00,,---,0.00,VWS V14.01,2013-04-29 04:01:00,
2013-04-28 23:03:00,65.3,53.2,29.69,South,190,0.0,0.0,65,0.00,,---,0.00,VWS V14.01,2013-04-29 04:03:00,
2013-04-28 23:07:00,65.1,53.1,29.69,South,191,0.0,0.0,65,0.00,,---,0.00,VWS V14.01,2013-04-29 04:07:00,
2013-04-28 23:09:00,64.9,52.9,29.69,South,190,0.0,0.0,65,0.00,,---,0.00,VWS V14.01,2013-04-29 04:09:00,
2013-04-28 23:11:00,64.7,52.7,29.69,South,190,0.0,0.0,65,0.00,,---,0.00,VWS V14.01,2013-04-29 04:11:00,
2013-04-28 23:17:00,63.8,52.2,29.69,South,191,0.0,0.0,66,0.00,,---,0.00,VWS V14.01,2013-04-29 04:17:00,
2013-04-28 23:23:00,63.2,52.1,29.69,South,191,0.0,0.0,67,0.00,,---,0.00,VWS V14.01,2013-04-29 04:23:00,
2013-04-28 23:29:00,63.3,52.6,29.69,ESE,123,0.0,0.0,68,0.00,,---,0.00,VWS V14.01,2013-04-29 04:29:00,
2013-04-28 23:35:00,63.3,52.6,29.69,SE,126,0.0,0.0,68,0.00,,---,0.00,VWS V14.01,2013-04-29 04:35:00,
2013-04-28 23:41:00,63.1,52.4,29.69,SE,125,0.0,0.0,68,0.00,,---,0.00,VWS V14.01,2013-04-29 04:41:00,
2013-04-28 23:47:00,63.0,52.3,29.69,SE,126,0.0,0.0,68,0.00,,---,0.00,VWS V14.01,2013-04-29 04:47:00,
2013-04-28 23:53:00,62.8,52.5,29.69,SE,125,0.0,0.0,69,0.00,,---,0.00,VWS V14.01,2013-04-29 04:53:00,
2013-04-28 23:59:00,62.6,52.7,29.69,SE,126,0.0,0.0,70,0.00,,---,0.00,VWS V14.01,2013-04-29 04:59:00,